Combinado, Brazil
Current Conditions -  °F | °C
As of 6:00 PM on Monday 22 Dec 2014 (Local Time) from SBPN Reporting Station
Few Clouds Few Clouds  
Wind Chill: 82°   Ceiling: Unl
Heat Index: 89°   Visibility: 6mi
Dew Point: 75°   Wind: 6mph
Humidity: 79%   Direction: 210°SSW
Pressure: 29.77"   Gusts: NA
Location:  12.79°S, 46.54°W
Report Text: SBPN 222100Z 21005KT 9999 FEW030 28/24 Q1008
Loading
Personal Weather Stations






























Interactive Weather Map New forecast layout! Learn more

10-Day Weather Forecast

Advertisements
Track Severe Weather on mobile